Time;durP1;ratioP1;P1;durP2;ratioP2;P2;SDS_P1;SDS_P2;PMS_P1;PMS_P2;Temp;Humidity;BMP_temperature;BMP_pressure;BME280_temperature;BME280_humidity;BME280_pressure;Samples;Min_cycle;Max_cycle;Signal;HPM_P1;HPM_P2
2022/01/16 00:00:24;;;;;;;134.07;55.47;;;;;;;;;;5089686;28;20051;-72
2022/01/16 00:05:26;;;;;;;94.68;40.50;;;;;;;;;;5086142;28;20054;-72
2022/01/16 00:07:53;;;;;;;122.75;46.58;;;;;;;;;;5086165;28;20791;-72
2022/01/16 00:10:20;;;;;;;126.38;49.92;;;;;;;;;;5075970;28;20032;-72
2022/01/16 00:12:52;;;;;;;120.95;50.03;;;;;;;;;;5074944;28;20028;-72
2022/01/16 00:15:19;;;;;;;103.35;45.72;;;;;;;;;;5082973;28;20029;-72
2022/01/16 00:17:54;;;;;;;99.82;40.25;;;;;;;;;;5072191;28;20099;-72
2022/01/16 00:20:21;;;;;;;87.80;37.83;;;;;;;;;;5076170;28;20036;-72
2022/01/16 00:22:48;;;;;;;98.95;39.00;;;;;;;;;;5093141;28;20028;-72
2022/01/16 00:25:16;;;;;;;111.45;38.78;;;;;;;;;;5084014;28;20463;-72
2022/01/16 00:27:42;;;;;;;111.28;44.25;;;;;;;;;;5071878;28;20029;-72
2022/01/16 00:30:08;;;;;;;89.03;36.20;;;;;;;;;;5088965;28;20036;-72
2022/01/16 00:32:34;;;;;;;341.23;63.53;;;;;;;;;;5078465;28;20029;-72
2022/01/16 00:35:01;;;;;;;150.57;44.50;;;;;;;;;;5097319;28;20047;-72
2022/01/16 00:37:27;;;;;;;104.18;39.67;;;;;;;;;;5069574;28;20383;-72
2022/01/16 00:39:53;;;;;;;91.53;37.70;;;;;;;;;;5086942;28;20052;-73
2022/01/16 00:42:19;;;;;;;90.65;38.83;;;;;;;;;;5077297;28;20687;-72
2022/01/16 00:44:45;;;;;;;114.47;37.45;;;;;;;;;;5082512;28;20051;-72
2022/01/16 00:47:11;;;;;;;92.97;36.33;;;;;;;;;;5087463;28;20028;-73
2022/01/16 00:49:39;;;;;;;212.55;48.67;;;;;;;;;;5101577;28;20032;-72
2022/01/16 00:52:06;;;;;;;83.32;38.25;;;;;;;;;;5070298;28;20468;-72
2022/01/16 00:54:32;;;;;;;77.63;35.17;;;;;;;;;;5086301;28;20227;-72
2022/01/16 00:56:58;;;;;;;95.25;41.25;;;;;;;;;;5088511;28;20383;-72
2022/01/16 00:59:24;;;;;;;93.30;38.17;;;;;;;;;;5089809;28;20031;-72
2022/01/16 01:01:50;;;;;;;109.32;38.42;;;;;;;;;;5082655;28;20823;-72
2022/01/16 01:04:16;;;;;;;76.25;35.97;;;;;;;;;;5088515;28;20749;-72
2022/01/16 01:06:43;;;;;;;323.30;51.97;;;;;;;;;;5084441;28;20055;-72
2022/01/16 01:09:09;;;;;;;121.88;41.40;;;;;;;;;;5086198;28;20570;-72
2022/01/16 01:11:37;;;;;;;81.35;35.38;;;;;;;;;;5080382;28;20037;-72
2022/01/16 01:19:19;;;;;;;118.95;46.15;;;;;;;;;;5093987;28;20067;-72
2022/01/16 01:21:45;;;;;;;106.50;40.33;;;;;;;;;;5083992;28;20119;-73
2022/01/16 01:24:11;;;;;;;86.35;36.22;;;;;;;;;;5087950;28;20036;-73
2022/01/16 01:26:46;;;;;;;93.30;36.33;;;;;;;;;;5087583;28;20044;-72
2022/01/16 01:29:17;;;;;;;504.10;67.78;;;;;;;;;;5088150;28;20070;-72
2022/01/16 01:31:43;;;;;;;100.28;37.05;;;;;;;;;;5086380;28;20123;-72
2022/01/16 01:34:09;;;;;;;71.15;33.45;;;;;;;;;;5087883;28;20059;-73
2022/01/16 01:36:35;;;;;;;518.28;68.28;;;;;;;;;;5087706;28;20529;-73
2022/01/16 01:39:01;;;;;;;68.20;33.17;;;;;;;;;;5090233;28;20142;-72
2022/01/16 01:41:29;;;;;;;120.75;41.33;;;;;;;;;;5084977;28;20039;-72
2022/01/16 01:52:08;;;;;;;303.13;53.47;;;;;;;;;;5084889;28;20039;-72
2022/01/16 01:54:34;;;;;;;210.73;43.80;;;;;;;;;;5070149;28;20473;-72
2022/01/16 01:57:01;;;;;;;98.30;37.20;;;;;;;;;;5082135;28;20569;-73
2022/01/16 01:59:27;;;;;;;128.73;41.35;;;;;;;;;;5085106;28;20111;-72
2022/01/16 02:01:53;;;;;;;170.35;44.70;;;;;;;;;;5084027;28;20037;-72
2022/01/16 02:04:19;;;;;;;303.27;49.28;;;;;;;;;;5086838;28;20336;-72
2022/01/16 02:06:45;;;;;;;84.05;38.13;;;;;;;;;;5079235;28;20455;-72
2022/01/16 02:09:11;;;;;;;108.97;39.28;;;;;;;;;;5080469;28;20118;-73
2022/01/16 02:11:37;;;;;;;91.85;40.13;;;;;;;;;;5068254;28;20440;-72
2022/01/16 02:35:39;;;;;;;132.60;50.13;;;;;;;;;;5075910;28;20391;-72
2022/01/16 02:38:06;;;;;;;102.25;41.90;;;;;;;;;;5085381;28;20845;-72
2022/01/16 02:40:33;;;;;;;149.02;42.80;;;;;;;;;;5086512;28;20058;-72
2022/01/16 02:42:59;;;;;;;71.13;35.40;;;;;;;;;;5090850;28;20038;-72
2022/01/16 02:45:33;;;;;;;216.45;46.65;;;;;;;;;;5084308;28;20025;-72
2022/01/16 02:48:02;;;;;;;224.35;45.97;;;;;;;;;;5087264;28;20050;-72
2022/01/16 02:50:28;;;;;;;88.90;38.42;;;;;;;;;;5082607;28;20162;-72
2022/01/16 02:52:54;;;;;;;113.78;38.22;;;;;;;;;;5091345;28;20023;-72
2022/01/16 02:55:21;;;;;;;284.83;52.58;;;;;;;;;;5089675;28;20056;-72
2022/01/16 02:57:48;;;;;;;342.38;64.38;;;;;;;;;;5076911;28;20032;-72
2022/01/16 03:00:15;;;;;;;143.10;44.47;;;;;;;;;;5091037;28;20028;-72
2022/01/16 03:02:41;;;;;;;145.07;42.85;;;;;;;;;;5077053;28;20044;-72
2022/01/16 03:05:07;;;;;;;135.27;44.85;;;;;;;;;;5086967;28;20053;-72
2022/01/16 03:07:33;;;;;;;122.13;36.90;;;;;;;;;;5077603;28;20564;-72
2022/01/16 03:10:18;;;;;;;76.68;34.47;;;;;;;;;;5084125;28;20036;-72
2022/01/16 03:12:46;;;;;;;78.60;34.17;;;;;;;;;;5091126;28;20370;-72
2022/01/16 03:15:14;;;;;;;248.73;51.80;;;;;;;;;;5081481;28;20028;-72
2022/01/16 03:23:18;;;;;;;263.15;47.53;;;;;;;;;;5078488;28;20042;-72
2022/01/16 03:25:44;;;;;;;117.68;38.00;;;;;;;;;;5082936;28;20035;-72
2022/01/16 03:28:11;;;;;;;94.60;38.72;;;;;;;;;;5091924;28;20168;-73
2022/01/16 03:30:37;;;;;;;68.80;33.75;;;;;;;;;;5080799;28;20040;-72
2022/01/16 03:33:03;;;;;;;77.10;34.08;;;;;;;;;;5088052;28;20028;-72
2022/01/16 03:35:30;;;;;;;158.05;42.55;;;;;;;;;;5090919;28;20704;-72
2022/01/16 03:37:56;;;;;;;82.07;33.63;;;;;;;;;;5089795;28;20038;-73
2022/01/16 03:40:22;;;;;;;456.67;68.57;;;;;;;;;;5101471;28;20052;-72
2022/01/16 03:42:49;;;;;;;99.13;37.83;;;;;;;;;;5076750;28;20552;-72
2022/01/16 03:45:15;;;;;;;86.80;33.00;;;;;;;;;;5090550;28;20074;-72
2022/01/16 03:47:41;;;;;;;132.05;43.40;;;;;;;;;;5077760;28;20036;-72
2022/01/16 03:50:07;;;;;;;215.27;51.42;;;;;;;;;;5090227;28;20027;-72
2022/01/16 03:52:33;;;;;;;131.60;41.30;;;;;;;;;;5082750;28;20040;-72
2022/01/16 03:54:59;;;;;;;114.60;40.70;;;;;;;;;;5092630;28;20039;-73
2022/01/16 03:57:26;;;;;;;198.60;49.05;;;;;;;;;;5090102;28;20028;-72
2022/01/16 03:59:52;;;;;;;235.52;51.97;;;;;;;;;;5101356;28;20032;-72
2022/01/16 04:02:18;;;;;;;114.90;38.08;;;;;;;;;;5090428;28;20036;-72
2022/01/16 04:04:44;;;;;;;102.20;36.25;;;;;;;;;;5089956;28;20028;-72
2022/01/16 04:07:15;;;;;;;111.57;36.30;;;;;;;;;;5090280;28;20028;-72
2022/01/16 04:09:41;;;;;;;68.63;32.42;;;;;;;;;;5089287;28;20020;-72
2022/01/16 04:12:09;;;;;;;128.77;43.92;;;;;;;;;;5075971;28;20065;-72
2022/01/16 04:17:14;;;;;;;59.72;31.27;;;;;;;;;;5071783;28;20082;-72
2022/01/16 04:19:40;;;;;;;64.20;31.85;;;;;;;;;;5101522;28;20149;-72
2022/01/16 04:22:06;;;;;;;61.22;29.17;;;;;;;;;;5082969;28;20024;-72
2022/01/16 04:24:33;;;;;;;64.78;32.13;;;;;;;;;;5087334;28;20027;-72
2022/01/16 04:26:59;;;;;;;64.80;30.33;;;;;;;;;;5089094;28;20028;-71
2022/01/16 04:29:25;;;;;;;64.32;32.38;;;;;;;;;;5087674;28;20039;-72
2022/01/16 04:31:51;;;;;;;53.25;28.55;;;;;;;;;;5084474;28;20620;-73
2022/01/16 04:34:17;;;;;;;56.33;29.90;;;;;;;;;;5105533;28;20038;-72
2022/01/16 04:36:43;;;;;;;55.70;29.00;;;;;;;;;;5084398;28;20036;-72
2022/01/16 04:39:15;;;;;;;59.63;30.73;;;;;;;;;;5083405;28;20532;-72
2022/01/16 04:44:26;;;;;;;74.20;34.10;;;;;;;;;;5102481;28;20041;-72
2022/01/16 04:46:52;;;;;;;58.92;31.33;;;;;;;;;;5091587;28;20475;-72
2022/01/16 04:49:19;;;;;;;68.53;33.20;;;;;;;;;;5086803;28;20044;-72
2022/01/16 04:51:45;;;;;;;58.88;29.88;;;;;;;;;;5089117;28;20033;-72
2022/01/16 04:54:11;;;;;;;53.65;28.10;;;;;;;;;;5078637;28;20061;-72
2022/01/16 04:56:37;;;;;;;47.28;25.50;;;;;;;;;;5078059;28;20032;-72
2022/01/16 04:59:03;;;;;;;47.03;25.10;;;;;;;;;;5084802;28;20043;-72
2022/01/16 05:01:29;;;;;;;50.28;25.77;;;;;;;;;;5087526;28;20032;-72
2022/01/16 05:03:55;;;;;;;46.03;25.23;;;;;;;;;;5077904;28;20433;-72
2022/01/16 05:06:21;;;;;;;43.70;23.42;;;;;;;;;;5069527;28;20128;-72
2022/01/16 05:08:47;;;;;;;42.60;21.80;;;;;;;;;;5078954;28;20057;-72
2022/01/16 05:11:15;;;;;;;46.30;25.27;;;;;;;;;;5088498;28;20039;-72
2022/01/16 05:18:54;;;;;;;41.97;21.25;;;;;;;;;;5092983;28;20066;-72
2022/01/16 05:21:21;;;;;;;44.03;22.60;;;;;;;;;;5078398;28;20036;-72
2022/01/16 05:23:47;;;;;;;39.90;21.83;;;;;;;;;;5100087;28;20035;-72
2022/01/16 05:26:14;;;;;;;42.15;21.20;;;;;;;;;;5077441;28;20038;-73
2022/01/16 05:28:40;;;;;;;44.85;25.38;;;;;;;;;;5093511;28;20711;-72
2022/01/16 05:31:06;;;;;;;40.00;21.30;;;;;;;;;;5088488;28;20111;-73
2022/01/16 05:33:32;;;;;;;39.38;20.67;;;;;;;;;;5087721;28;20154;-73
2022/01/16 05:35:59;;;;;;;37.33;20.50;;;;;;;;;;5084947;28;20028;-73
2022/01/16 05:38:25;;;;;;;39.20;20.70;;;;;;;;;;5095792;28;20044;-72
2022/01/16 05:40:51;;;;;;;43.55;20.90;;;;;;;;;;5096074;28;20383;-72
2022/01/16 05:43:17;;;;;;;36.97;20.23;;;;;;;;;;5078401;28;20398;-72
2022/01/16 05:45:43;;;;;;;35.88;19.27;;;;;;;;;;5084096;28;20029;-72
2022/01/16 05:48:09;;;;;;;42.83;21.65;;;;;;;;;;5082698;28;20035;-72
2022/01/16 05:50:35;;;;;;;37.03;19.08;;;;;;;;;;5108498;28;20098;-72
2022/01/16 05:53:02;;;;;;;34.17;18.77;;;;;;;;;;5089101;28;20032;-73
2022/01/16 05:55:33;;;;;;;31.98;16.85;;;;;;;;;;5076510;28;20040;-72
2022/01/16 05:57:59;;;;;;;30.33;16.47;;;;;;;;;;5087388;28;20042;-72
2022/01/16 06:00:26;;;;;;;28.08;14.85;;;;;;;;;;5106931;28;20306;-72
2022/01/16 06:02:52;;;;;;;29.30;15.30;;;;;;;;;;5080140;28;20096;-72
2022/01/16 06:05:18;;;;;;;32.50;16.45;;;;;;;;;;5104993;28;20036;-72
2022/01/16 06:07:53;;;;;;;28.08;14.60;;;;;;;;;;5071453;28;20116;-72
2022/01/16 06:10:19;;;;;;;30.10;15.95;;;;;;;;;;5088158;28;20036;-72
2022/01/16 06:12:45;;;;;;;30.27;15.57;;;;;;;;;;5087969;28;20106;-72
2022/01/16 06:15:11;;;;;;;30.95;15.35;;;;;;;;;;5081542;28;20036;-72
2022/01/16 06:17:37;;;;;;;26.25;13.45;;;;;;;;;;5083880;28;20034;-73
2022/01/16 06:20:03;;;;;;;26.90;14.07;;;;;;;;;;5078093;28;20382;-72
2022/01/16 06:22:29;;;;;;;31.05;15.88;;;;;;;;;;5084583;28;20028;-72
2022/01/16 06:24:55;;;;;;;27.75;14.77;;;;;;;;;;5084693;28;20532;-72
2022/01/16 06:27:21;;;;;;;28.65;14.27;;;;;;;;;;5081550;28;20078;-72
2022/01/16 06:29:47;;;;;;;27.17;14.23;;;;;;;;;;5089809;28;20045;-72
2022/01/16 06:32:13;;;;;;;27.00;14.82;;;;;;;;;;5080745;28;20040;-72
2022/01/16 06:34:39;;;;;;;29.73;14.15;;;;;;;;;;5083828;28;20037;-72
2022/01/16 06:37:05;;;;;;;30.95;16.75;;;;;;;;;;5086985;28;20418;-72
2022/01/16 06:39:31;;;;;;;33.05;17.95;;;;;;;;;;5087379;28;20063;-73
2022/01/16 06:41:57;;;;;;;32.78;18.05;;;;;;;;;;5081695;28;20040;-73
2022/01/16 06:44:24;;;;;;;30.27;16.30;;;;;;;;;;5091998;28;20046;-72
2022/01/16 06:46:50;;;;;;;27.77;15.45;;;;;;;;;;5086399;28;20074;-73
2022/01/16 06:49:16;;;;;;;32.13;18.63;;;;;;;;;;5087281;28;20060;-72
2022/01/16 06:51:42;;;;;;;31.42;17.30;;;;;;;;;;5084973;28;20040;-72
2022/01/16 06:54:08;;;;;;;29.33;17.48;;;;;;;;;;5091833;28;20082;-72
2022/01/16 06:56:34;;;;;;;30.00;17.42;;;;;;;;;;5072616;28;20099;-72
2022/01/16 06:59:00;;;;;;;32.50;18.20;;;;;;;;;;5080138;28;20110;-72
2022/01/16 07:01:26;;;;;;;30.63;16.02;;;;;;;;;;5084012;28;20073;-72
2022/01/16 07:03:56;;;;;;;30.90;15.35;;;;;;;;;;5091585;28;20035;-72
2022/01/16 07:06:22;;;;;;;33.17;16.70;;;;;;;;;;5083700;28;20039;-73
2022/01/16 07:08:48;;;;;;;66.85;34.17;;;;;;;;;;5086827;28;20743;-73
2022/01/16 07:11:15;;;;;;;57.05;29.90;;;;;;;;;;5082279;28;20832;-72
2022/01/16 07:13:41;;;;;;;61.47;32.10;;;;;;;;;;5081996;28;20052;-74
2022/01/16 07:16:07;;;;;;;59.20;32.08;;;;;;;;;;5080599;28;20040;-73
2022/01/16 07:18:33;;;;;;;65.75;34.22;;;;;;;;;;5084725;28;20043;-73
2022/01/16 07:20:59;;;;;;;61.15;33.30;;;;;;;;;;5085596;28;20036;-72
2022/01/16 07:23:26;;;;;;;63.50;32.58;;;;;;;;;;5084988;28;20069;-72
2022/01/16 07:25:55;;;;;;;54.90;28.25;;;;;;;;;;5080427;28;20437;-72
2022/01/16 07:28:21;;;;;;;43.10;24.17;;;;;;;;;;5084225;28;20039;-72
2022/01/16 07:30:47;;;;;;;34.42;19.85;;;;;;;;;;5081308;28;20449;-73
2022/01/16 07:33:14;;;;;;;35.20;19.58;;;;;;;;;;5080438;28;20024;-73
2022/01/16 07:35:40;;;;;;;36.65;20.25;;;;;;;;;;5090555;28;20107;-74
2022/01/16 07:38:08;;;;;;;40.15;23.42;;;;;;;;;;5065030;28;20045;-73
2022/01/16 07:40:37;;;;;;;37.70;20.45;;;;;;;;;;5080033;28;20047;-74
2022/01/16 07:43:03;;;;;;;39.10;19.52;;;;;;;;;;5077910;28;20032;-74
2022/01/16 07:45:29;;;;;;;39.70;21.67;;;;;;;;;;5083667;28;20502;-74
2022/01/16 07:47:55;;;;;;;44.17;22.15;;;;;;;;;;5065126;28;20051;-73
2022/01/16 07:50:21;;;;;;;44.63;25.25;;;;;;;;;;5084361;28;20181;-74
2022/01/16 07:52:50;;;;;;;39.22;23.50;;;;;;;;;;5081151;28;21243;-73
2022/01/16 07:55:17;;;;;;;40.35;22.17;;;;;;;;;;5082010;28;20032;-74
2022/01/16 07:57:44;;;;;;;39.78;20.88;;;;;;;;;;5083545;28;20031;-73
2022/01/16 08:00:12;;;;;;;39.53;21.55;;;;;;;;;;5069471;28;20036;-73
2022/01/16 08:02:38;;;;;;;39.33;22.80;;;;;;;;;;5079392;28;20562;-73
2022/01/16 08:05:04;;;;;;;36.75;21.02;;;;;;;;;;5079358;28;20077;-73
2022/01/16 08:07:30;;;;;;;34.88;18.38;;;;;;;;;;5083091;28;20032;-73
2022/01/16 08:09:56;;;;;;;37.10;21.83;;;;;;;;;;5080741;28;20040;-72
2022/01/16 08:12:22;;;;;;;34.28;19.13;;;;;;;;;;5080517;28;20025;-72
2022/01/16 08:14:48;;;;;;;39.08;21.55;;;;;;;;;;5081752;28;20062;-72
2022/01/16 08:17:14;;;;;;;41.72;25.80;;;;;;;;;;5075605;28;20020;-72
2022/01/16 08:19:40;;;;;;;40.28;23.13;;;;;;;;;;5078865;28;20044;-72
2022/01/16 08:22:07;;;;;;;39.97;23.05;;;;;;;;;;5082244;28;20748;-73
2022/01/16 08:24:33;;;;;;;37.15;22.23;;;;;;;;;;5082362;28;20108;-73
2022/01/16 08:26:59;;;;;;;42.80;25.38;;;;;;;;;;5080126;28;20043;-73
2022/01/16 08:29:25;;;;;;;45.03;27.95;;;;;;;;;;5082190;28;20028;-73
2022/01/16 08:31:51;;;;;;;44.33;25.88;;;;;;;;;;5085360;28;20032;-73
2022/01/16 08:34:17;;;;;;;46.80;30.40;;;;;;;;;;5085637;28;20070;-73
2022/01/16 08:36:43;;;;;;;44.95;26.60;;;;;;;;;;5079597;28;20059;-73
2022/01/16 08:39:09;;;;;;;43.38;26.23;;;;;;;;;;5079286;28;20119;-73
2022/01/16 08:41:37;;;;;;;44.17;26.10;;;;;;;;;;5089309;28;20427;-73
2022/01/16 08:44:03;;;;;;;42.17;25.55;;;;;;;;;;5083750;28;20032;-74
2022/01/16 08:46:29;;;;;;;43.35;26.52;;;;;;;;;;5089486;28;20032;-72
2022/01/16 08:48:55;;;;;;;40.85;26.52;;;;;;;;;;5089711;28;20038;-72
2022/01/16 08:51:21;;;;;;;45.78;27.10;;;;;;;;;;5086546;28;20036;-71
2022/01/16 08:53:47;;;;;;;41.75;25.75;;;;;;;;;;5083947;28;20111;-72
2022/01/16 08:56:14;;;;;;;43.60;27.00;;;;;;;;;;5089118;28;20035;-72
2022/01/16 08:58:40;;;;;;;48.83;28.83;;;;;;;;;;5088345;28;20107;-71
2022/01/16 09:01:06;;;;;;;40.40;24.80;;;;;;;;;;5088893;28;20081;-71
2022/01/16 09:03:32;;;;;;;45.53;29.55;;;;;;;;;;5088741;28;20032;-72
2022/01/16 09:05:58;;;;;;;59.13;37.10;;;;;;;;;;5085617;28;20051;-71
2022/01/16 09:08:24;;;;;;;64.00;41.35;;;;;;;;;;5075221;28;20116;-72
2022/01/16 09:10:50;;;;;;;57.05;36.97;;;;;;;;;;5084046;28;20036;-73
2022/01/16 09:13:17;;;;;;;56.03;33.75;;;;;;;;;;5078088;28;20028;-72
2022/01/16 09:15:44;;;;;;;51.45;30.02;;;;;;;;;;5077669;28;20024;-72
2022/01/16 09:18:10;;;;;;;53.42;32.60;;;;;;;;;;5080282;28;20115;-72
2022/01/16 09:20:36;;;;;;;54.58;31.17;;;;;;;;;;5088929;28;20036;-72
2022/01/16 09:23:03;;;;;;;57.67;35.67;;;;;;;;;;5086009;28;20741;-72
2022/01/16 09:25:29;;;;;;;62.42;39.72;;;;;;;;;;5070666;28;20027;-72
2022/01/16 09:27:55;;;;;;;66.80;44.47;;;;;;;;;;5092664;28;20054;-72
2022/01/16 09:30:21;;;;;;;79.32;54.13;;;;;;;;;;5091322;28;20040;-72
2022/01/16 09:32:48;;;;;;;83.15;52.17;;;;;;;;;;5075976;28;20160;-71
2022/01/16 09:35:14;;;;;;;62.33;39.88;;;;;;;;;;5066933;28;20029;-72
2022/01/16 09:37:41;;;;;;;76.07;50.47;;;;;;;;;;5079073;28;20060;-71
2022/01/16 09:40:08;;;;;;;61.90;40.28;;;;;;;;;;5079961;28;20866;-72
2022/01/16 09:42:35;;;;;;;64.88;42.33;;;;;;;;;;5084560;28;20028;-72
2022/01/16 09:45:01;;;;;;;53.38;35.72;;;;;;;;;;5088939;28;20056;-71
2022/01/16 09:47:27;;;;;;;50.50;34.17;;;;;;;;;;5084475;28;20036;-72
2022/01/16 09:49:53;;;;;;;49.42;32.10;;;;;;;;;;5085763;28;20141;-72
2022/01/16 09:52:19;;;;;;;43.95;31.50;;;;;;;;;;5084187;28;20443;-72
2022/01/16 09:54:45;;;;;;;47.67;32.20;;;;;;;;;;5087837;28;20363;-73
2022/01/16 09:57:12;;;;;;;36.45;25.55;;;;;;;;;;5078304;28;20031;-72
2022/01/16 09:59:38;;;;;;;42.72;28.55;;;;;;;;;;5093829;28;20032;-73
2022/01/16 10:02:05;;;;;;;42.90;23.83;;;;;;;;;;5088035;28;20036;-73
2022/01/16 10:04:36;;;;;;;35.08;21.27;;;;;;;;;;5078632;28;20038;-72
2022/01/16 10:07:04;;;;;;;42.15;22.55;;;;;;;;;;5078099;28;20040;-72
2022/01/16 10:09:30;;;;;;;35.30;20.45;;;;;;;;;;5082311;28;20386;-73
2022/01/16 10:11:57;;;;;;;39.72;19.20;;;;;;;;;;5088168;28;20144;-73
2022/01/16 10:14:36;;;;;;;34.38;24.30;;;;;;;;;;5086757;28;20028;-72
2022/01/16 10:17:13;;;;;;;35.67;26.50;;;;;;;;;;5068933;28;20035;-72
2022/01/16 10:19:39;;;;;;;49.50;35.88;;;;;;;;;;5082914;28;20029;-72
2022/01/16 10:22:06;;;;;;;26.30;19.38;;;;;;;;;;5079324;28;20028;-72
2022/01/16 10:24:34;;;;;;;22.60;15.48;;;;;;;;;;5078225;28;20107;-72
2022/01/16 10:27:09;;;;;;;22.63;14.20;;;;;;;;;;5085347;28;20805;-72
2022/01/16 10:29:39;;;;;;;18.77;11.27;;;;;;;;;;5081089;28;20056;-72
2022/01/16 10:32:13;;;;;;;32.40;17.48;;;;;;;;;;5080155;28;20043;-73
2022/01/16 10:34:40;;;;;;;30.00;19.05;;;;;;;;;;5080164;28;20028;-73
2022/01/16 10:37:38;;;;;;;30.48;17.60;;;;;;;;;;5068797;28;20101;-73
2022/01/16 10:40:09;;;;;;;25.73;16.35;;;;;;;;;;5025038;28;20059;-72
2022/01/16 10:42:35;;;;;;;41.17;25.92;;;;;;;;;;5057563;28;20028;-72
2022/01/16 10:45:01;;;;;;;44.20;28.40;;;;;;;;;;5062732;28;20078;-72
2022/01/16 10:47:27;;;;;;;40.92;26.65;;;;;;;;;;5066911;28;20032;-72
2022/01/16 10:50:02;;;;;;;27.10;18.45;;;;;;;;;;5067631;28;20032;-72
2022/01/16 10:52:29;;;;;;;36.00;22.98;;;;;;;;;;5064799;28;20033;-71
2022/01/16 10:54:55;;;;;;;39.58;26.20;;;;;;;;;;5062917;28;20036;-72
2022/01/16 10:57:23;;;;;;;29.42;19.45;;;;;;;;;;5067188;28;20091;-72
2022/01/16 10:59:50;;;;;;;29.05;19.20;;;;;;;;;;5058246;28;20037;-73
2022/01/16 11:02:16;;;;;;;26.10;17.02;;;;;;;;;;5066497;28;20040;-72
2022/01/16 11:04:42;;;;;;;34.72;22.50;;;;;;;;;;5070046;28;20032;-72
2022/01/16 11:07:08;;;;;;;38.15;23.48;;;;;;;;;;5054898;28;20083;-73
2022/01/16 11:09:34;;;;;;;29.25;19.80;;;;;;;;;;5072385;28;20486;-72
2022/01/16 11:12:00;;;;;;;21.20;14.45;;;;;;;;;;5084804;28;20032;-72
2022/01/16 11:14:27;;;;;;;14.02;8.77;;;;;;;;;;5067739;28;20028;-72
2022/01/16 11:16:54;;;;;;;8.95;4.60;;;;;;;;;;5060419;28;20083;-72
2022/01/16 11:19:23;;;;;;;19.33;11.60;;;;;;;;;;5065131;28;20033;-72
2022/01/16 11:21:53;;;;;;;19.30;11.82;;;;;;;;;;5070748;28;20035;-72
2022/01/16 11:26:52;;;;;;;11.15;6.88;;;;;;;;;;5069740;28;20032;-72
2022/01/16 11:29:18;;;;;;;11.68;7.40;;;;;;;;;;5070687;28;20475;-72
2022/01/16 11:31:48;;;;;;;15.82;9.20;;;;;;;;;;5060252;28;20056;-72
2022/01/16 11:34:14;;;;;;;16.08;11.13;;;;;;;;;;5070265;28;20036;-72
2022/01/16 11:36:41;;;;;;;15.98;8.93;;;;;;;;;;5063947;28;20024;-72
2022/01/16 11:39:07;;;;;;;13.13;7.90;;;;;;;;;;5077209;28;20048;-72
2022/01/16 11:41:50;;;;;;;10.73;5.55;;;;;;;;;;5089122;28;20036;-72
2022/01/16 11:44:27;;;;;;;9.60;5.57;;;;;;;;;;5083192;28;20056;-72
2022/01/16 11:46:55;;;;;;;14.88;9.10;;;;;;;;;;5082906;28;20032;-73
2022/01/16 11:49:38;;;;;;;30.63;18.13;;;;;;;;;;5099900;28;20038;-72
2022/01/16 11:52:10;;;;;;;18.77;10.35;;;;;;;;;;5080946;28;20036;-72
2022/01/16 11:54:38;;;;;;;17.80;10.55;;;;;;;;;;5089507;28;20115;-72
2022/01/16 11:57:05;;;;;;;11.82;6.75;;;;;;;;;;5084336;28;20040;-72
2022/01/16 11:59:34;;;;;;;7.68;4.38;;;;;;;;;;5087035;28;20607;-72
2022/01/16 12:02:09;;;;;;;6.97;3.50;;;;;;;;;;5084418;28;20119;-72
2022/01/16 12:04:38;;;;;;;10.25;5.93;;;;;;;;;;5088432;28;20077;-72
2022/01/16 12:07:13;;;;;;;12.02;7.72;;;;;;;;;;5073881;28;20078;-71
2022/01/16 12:12:11;;;;;;;5.88;2.80;;;;;;;;;;5081051;28;20047;-71
2022/01/16 12:14:57;;;;;;;5.78;3.05;;;;;;;;;;5086648;28;20688;-71
2022/01/16 12:17:32;;;;;;;5.10;2.72;;;;;;;;;;5068692;28;20120;-71
2022/01/16 12:20:14;;;;;;;5.60;2.00;;;;;;;;;;5081410;28;20139;-71
2022/01/16 12:22:43;;;;;;;5.17;1.90;;;;;;;;;;5086892;28;20027;-71
2022/01/16 12:25:16;;;;;;;4.15;1.55;;;;;;;;;;5089913;28;20028;-71
2022/01/16 12:27:44;;;;;;;4.72;1.58;;;;;;;;;;5073856;28;20056;-71
2022/01/16 12:30:10;;;;;;;4.38;1.75;;;;;;;;;;5070296;28;20480;-71
2022/01/16 12:32:55;;;;;;;4.55;1.73;;;;;;;;;;5069475;28;20060;-71
2022/01/16 12:35:39;;;;;;;6.03;2.78;;;;;;;;;;5087543;28;20070;-71
2022/01/16 12:38:09;;;;;;;8.10;2.83;;;;;;;;;;5079279;28;20488;-71
2022/01/16 12:40:37;;;;;;;5.00;2.10;;;;;;;;;;5072530;28;20078;-71
2022/01/16 12:43:05;;;;;;;5.22;2.13;;;;;;;;;;5086828;28;20032;-71
2022/01/16 12:45:38;;;;;;;6.20;2.40;;;;;;;;;;5083215;28;20027;-72
2022/01/16 12:48:04;;;;;;;5.05;2.13;;;;;;;;;;5082648;28;20036;-71
2022/01/16 12:50:30;;;;;;;2.92;1.20;;;;;;;;;;5069839;28;20471;-71
2022/01/16 12:52:56;;;;;;;4.10;1.67;;;;;;;;;;5083000;28;20079;-71
2022/01/16 12:55:29;;;;;;;7.30;3.67;;;;;;;;;;5087865;28;20032;-71
2022/01/16 12:58:13;;;;;;;10.13;4.80;;;;;;;;;;5088991;28;20721;-71
2022/01/16 13:00:56;;;;;;;11.73;5.18;;;;;;;;;;5076305;28;20032;-71
2022/01/16 13:03:26;;;;;;;7.93;3.90;;;;;;;;;;5075589;28;20108;-71
2022/01/16 13:05:52;;;;;;;6.82;2.60;;;;;;;;;;5072834;28;20499;-71
2022/01/16 13:08:18;;;;;;;7.10;2.90;;;;;;;;;;5085232;28;20027;-71
2022/01/16 13:10:44;;;;;;;24.38;10.13;;;;;;;;;;5085691;28;20085;-71
2022/01/16 13:13:11;;;;;;;13.82;5.78;;;;;;;;;;5085990;28;20028;-71
2022/01/16 13:15:37;;;;;;;12.93;4.97;;;;;;;;;;5087268;28;20474;-71
2022/01/16 13:18:12;;;;;;;10.93;4.80;;;;;;;;;;5083532;28;20036;-71
2022/01/16 13:20:38;;;;;;;12.65;5.18;;;;;;;;;;5086657;28;20036;-71
2022/01/16 13:23:05;;;;;;;11.50;4.63;;;;;;;;;;5083289;28;20036;-71
2022/01/16 13:25:31;;;;;;;10.68;4.18;;;;;;;;;;5101546;28;20032;-72
2022/01/16 13:27:58;;;;;;;8.73;3.63;;;;;;;;;;5087400;28;20031;-71
2022/01/16 13:30:26;;;;;;;7.50;3.17;;;;;;;;;;5086499;28;20043;-71
2022/01/16 13:32:52;;;;;;;10.65;5.40;;;;;;;;;;5086093;28;20139;-71
2022/01/16 13:35:18;;;;;;;22.00;12.52;;;;;;;;;;5079795;28;20024;-71
2022/01/16 13:37:45;;;;;;;18.20;11.20;;;;;;;;;;5076835;28;20034;-71
2022/01/16 13:40:15;;;;;;;20.33;11.15;;;;;;;;;;5085024;28;20084;-71
2022/01/16 13:45:25;;;;;;;14.98;8.63;;;;;;;;;;5086160;28;20039;-72
2022/01/16 13:48:00;;;;;;;17.30;9.60;;;;;;;;;;5087747;28;20977;-71
2022/01/16 13:50:28;;;;;;;34.70;19.80;;;;;;;;;;5085700;28;20656;-71
2022/01/16 13:52:59;;;;;;;57.45;32.35;;;;;;;;;;5083462;28;20699;-71
2022/01/16 13:55:26;;;;;;;56.47;33.17;;;;;;;;;;5090465;28;20497;-71
2022/01/16 13:57:55;;;;;;;49.25;26.38;;;;;;;;;;5079074;28;20103;-71
2022/01/16 14:00:28;;;;;;;36.20;20.38;;;;;;;;;;5076057;28;20040;-71
2022/01/16 14:03:08;;;;;;;17.67;7.13;;;;;;;;;;5065932;28;20032;-72
2022/01/16 14:05:40;;;;;;;13.70;7.10;;;;;;;;;;5072240;28;20031;-71
2022/01/16 14:08:39;;;;;;;13.25;6.65;;;;;;;;;;5090368;28;20679;-71
2022/01/16 14:11:08;;;;;;;14.50;4.07;;;;;;;;;;5031143;28;20787;-72
2022/01/16 14:13:34;;;;;;;9.00;3.88;;;;;;;;;;5087192;28;20028;-71
2022/01/16 14:16:08;;;;;;;8.32;3.80;;;;;;;;;;5083591;28;20535;-71
2022/01/16 14:18:53;;;;;;;9.23;3.85;;;;;;;;;;5083141;28;20039;-71
2022/01/16 14:24:04;;;;;;;9.43;3.75;;;;;;;;;;5096428;28;20046;-71
2022/01/16 14:26:30;;;;;;;11.50;4.78;;;;;;;;;;5067987;28;20462;-71
2022/01/16 14:28:56;;;;;;;14.43;5.13;;;;;;;;;;5080734;28;20131;-71
2022/01/16 14:31:22;;;;;;;11.20;4.60;;;;;;;;;;5076160;28;20036;-71
2022/01/16 14:33:48;;;;;;;9.20;3.80;;;;;;;;;;5087465;28;20481;-72
2022/01/16 14:36:17;;;;;;;9.43;4.22;;;;;;;;;;5067511;28;20493;-71
2022/01/16 14:38:43;;;;;;;8.98;4.07;;;;;;;;;;5078060;28;20044;-72
2022/01/16 14:41:12;;;;;;;6.97;2.70;;;;;;;;;;5070205;28;20202;-71
2022/01/16 14:43:57;;;;;;;5.22;2.53;;;;;;;;;;5082446;28;20040;-71
2022/01/16 14:46:24;;;;;;;5.88;2.47;;;;;;;;;;5081233;28;20029;-72
2022/01/16 14:48:51;;;;;;;5.50;2.22;;;;;;;;;;5087265;28;20769;-71
2022/01/16 14:51:17;;;;;;;6.22;2.75;;;;;;;;;;5078760;28;20107;-71
2022/01/16 14:53:43;;;;;;;4.78;1.77;;;;;;;;;;5096783;28;20031;-71
2022/01/16 14:56:10;;;;;;;26.98;13.98;;;;;;;;;;5085994;28;20471;-71
2022/01/16 14:58:36;;;;;;;49.03;25.58;;;;;;;;;;5078180;28;20028;-71
2022/01/16 15:01:02;;;;;;;44.08;22.67;;;;;;;;;;5082485;28;20052;-72
2022/01/16 15:03:28;;;;;;;40.50;21.00;;;;;;;;;;5090220;28;20127;-71
2022/01/16 15:05:55;;;;;;;29.55;12.57;;;;;;;;;;5081898;28;20519;-71
2022/01/16 15:08:21;;;;;;;20.42;9.75;;;;;;;;;;5081878;28;20032;-71
2022/01/16 15:10:47;;;;;;;16.88;7.72;;;;;;;;;;5087576;28;20709;-71
2022/01/16 15:13:13;;;;;;;17.38;8.07;;;;;;;;;;5081214;28;20753;-71
2022/01/16 15:15:39;;;;;;;42.15;15.55;;;;;;;;;;5088916;28;20616;-71
2022/01/16 15:18:07;;;;;;;43.78;16.58;;;;;;;;;;5088436;28;20081;-71
2022/01/16 15:20:35;;;;;;;20.52;7.65;;;;;;;;;;5078430;28;20036;-71
2022/01/16 15:23:01;;;;;;;15.52;7.50;;;;;;;;;;5090257;28;20035;-71
2022/01/16 15:25:29;;;;;;;9.15;4.82;;;;;;;;;;5086279;28;20036;-71